Time;durP1;ratioP1;P1;durP2;ratioP2;P2;SDS_P1;SDS_P2;PMS_P1;PMS_P2;Temp;Humidity;BMP_temperature;BMP_pressure;BME280_temperature;BME280_humidity;BME280_pressure;Samples;Min_cycle;Max_cycle;Signal;HPM_P1;HPM_P2
2021/05/14 00:00:24;;;;;;;25.53;22.57;;;;;;;;;;5073641;28;20172;-79
2021/05/14 00:02:49;;;;;;;30.03;23.80;;;;;;;;;;5073528;28;20178;-79
2021/05/14 00:05:14;;;;;;;27.00;22.33;;;;;;;;;;5073585;28;20595;-79
2021/05/14 00:07:40;;;;;;;27.80;22.77;;;;;;;;;;5074062;28;20665;-79
2021/05/14 00:10:06;;;;;;;29.60;22.23;;;;;;;;;;5073561;28;20170;-79
2021/05/14 00:12:32;;;;;;;25.37;22.50;;;;;;;;;;5055595;28;20228;-79
2021/05/14 00:14:57;;;;;;;29.27;23.30;;;;;;;;;;5073453;28;20175;-80
2021/05/14 00:17:23;;;;;;;29.80;24.07;;;;;;;;;;5073031;28;20695;-80
2021/05/14 00:19:48;;;;;;;29.70;23.93;;;;;;;;;;5073351;28;20302;-79
2021/05/14 00:22:13;;;;;;;29.97;25.77;;;;;;;;;;5089062;28;20266;-79
2021/05/14 00:24:38;;;;;;;31.73;25.40;;;;;;;;;;5073977;28;20524;-79
2021/05/14 00:27:04;;;;;;;30.93;25.30;;;;;;;;;;5073094;28;20171;-79
2021/05/14 00:29:29;;;;;;;28.13;24.00;;;;;;;;;;5073377;28;20167;-79
2021/05/14 00:31:55;;;;;;;27.97;24.30;;;;;;;;;;5074274;28;20271;-79
2021/05/14 00:34:20;;;;;;;28.47;23.90;;;;;;;;;;5076981;28;20552;-79
2021/05/14 00:36:46;;;;;;;28.93;24.07;;;;;;;;;;5059027;28;20599;-79
2021/05/14 00:39:11;;;;;;;30.33;26.07;;;;;;;;;;5076826;28;20286;-79
2021/05/14 00:41:37;;;;;;;32.63;25.50;;;;;;;;;;5076874;28;20175;-79
2021/05/14 00:44:20;;;;;;;29.20;25.23;;;;;;;;;;5076541;28;20171;-79
2021/05/14 00:46:46;;;;;;;28.17;24.33;;;;;;;;;;5076588;28;20322;-79
2021/05/14 00:49:11;;;;;;;28.23;23.77;;;;;;;;;;5077042;28;20214;-79
2021/05/14 00:51:37;;;;;;;28.53;23.83;;;;;;;;;;5076706;28;20707;-79
2021/05/14 00:54:02;;;;;;;29.43;25.33;;;;;;;;;;5077011;28;20274;-79
2021/05/14 00:56:28;;;;;;;27.10;24.20;;;;;;;;;;5077419;28;20178;-79
2021/05/14 00:58:53;;;;;;;28.33;25.17;;;;;;;;;;5076441;28;20191;-79
2021/05/14 01:01:18;;;;;;;30.87;25.10;;;;;;;;;;5076483;28;20498;-79
2021/05/14 01:03:44;;;;;;;30.47;24.70;;;;;;;;;;5076478;28;20175;-79
2021/05/14 01:06:09;;;;;;;30.00;24.83;;;;;;;;;;5077105;28;20175;-79
2021/05/14 01:08:35;;;;;;;28.60;25.50;;;;;;;;;;5076145;28;20171;-79
2021/05/14 01:11:01;;;;;;;27.83;24.77;;;;;;;;;;5076640;28;20504;-79
2021/05/14 01:13:26;;;;;;;30.07;26.03;;;;;;;;;;5076295;28;20193;-79
2021/05/14 01:15:51;;;;;;;31.00;26.40;;;;;;;;;;5076223;28;20178;-79
2021/05/14 01:18:17;;;;;;;33.27;25.97;;;;;;;;;;5075742;28;20223;-79
2021/05/14 01:20:42;;;;;;;29.03;24.77;;;;;;;;;;5058177;28;20270;-79
2021/05/14 01:23:07;;;;;;;28.80;23.93;;;;;;;;;;5076178;28;20216;-79
2021/05/14 01:25:32;;;;;;;26.77;22.97;;;;;;;;;;5076133;28;20172;-79
2021/05/14 01:27:58;;;;;;;27.37;23.23;;;;;;;;;;5075826;28;20275;-79
2021/05/14 01:30:23;;;;;;;24.13;21.53;;;;;;;;;;5076034;28;20172;-79
2021/05/14 01:32:48;;;;;;;26.40;22.47;;;;;;;;;;5075980;28;20305;-79
2021/05/14 01:35:14;;;;;;;31.40;23.67;;;;;;;;;;5075929;28;20171;-78
2021/05/14 01:37:40;;;;;;;26.93;22.77;;;;;;;;;;5076043;28;20174;-78
2021/05/14 01:40:06;;;;;;;26.00;21.83;;;;;;;;;;5076163;28;20529;-79
2021/05/14 01:42:32;;;;;;;26.07;23.03;;;;;;;;;;5076559;28;20478;-79
2021/05/14 01:44:57;;;;;;;27.07;22.00;;;;;;;;;;5074864;28;20174;-79
2021/05/14 01:47:22;;;;;;;25.43;22.73;;;;;;;;;;5076246;28;20171;-79
2021/05/14 01:49:47;;;;;;;27.70;22.40;;;;;;;;;;5075597;28;20175;-79
2021/05/14 01:52:13;;;;;;;28.37;22.43;;;;;;;;;;5075518;28;20171;-79
2021/05/14 01:54:38;;;;;;;29.23;23.23;;;;;;;;;;5075176;28;20179;-79
2021/05/14 01:57:04;;;;;;;29.87;23.63;;;;;;;;;;5075667;28;20178;-78
2021/05/14 01:59:29;;;;;;;29.30;25.23;;;;;;;;;;5057459;28;20227;-79
2021/05/14 02:01:54;;;;;;;31.10;25.03;;;;;;;;;;5075203;28;20167;-79
2021/05/14 02:04:19;;;;;;;27.30;23.40;;;;;;;;;;5090952;28;20266;-79
2021/05/14 02:06:45;;;;;;;28.37;22.83;;;;;;;;;;5075522;28;20167;-79
2021/05/14 02:09:10;;;;;;;29.23;24.00;;;;;;;;;;5075723;28;20178;-79
2021/05/14 02:11:35;;;;;;;28.10;23.70;;;;;;;;;;5074862;28;20167;-79
2021/05/14 02:14:01;;;;;;;25.63;22.93;;;;;;;;;;5075388;28;20195;-79
2021/05/14 02:16:26;;;;;;;27.00;23.30;;;;;;;;;;5074927;28;20271;-79
2021/05/14 02:18:52;;;;;;;29.07;24.63;;;;;;;;;;5075370;28;20234;-79
2021/05/14 02:21:17;;;;;;;25.93;22.23;;;;;;;;;;5075048;28;20570;-79
2021/05/14 02:23:43;;;;;;;27.10;24.20;;;;;;;;;;5074586;28;20646;-78
2021/05/14 02:26:08;;;;;;;25.37;22.43;;;;;;;;;;5075141;28;20539;-78
2021/05/14 02:28:33;;;;;;;27.37;23.10;;;;;;;;;;5056911;28;20179;-79
2021/05/14 02:30:59;;;;;;;28.83;22.77;;;;;;;;;;5074478;28;20198;-79
2021/05/14 02:33:24;;;;;;;26.77;22.73;;;;;;;;;;5074341;28;20187;-79
2021/05/14 02:35:49;;;;;;;29.43;23.87;;;;;;;;;;5075096;28;20205;-79
2021/05/14 02:38:15;;;;;;;27.77;23.10;;;;;;;;;;5090322;28;20203;-79
2021/05/14 02:40:40;;;;;;;26.77;23.40;;;;;;;;;;5074643;28;20174;-79
2021/05/14 02:43:06;;;;;;;27.63;23.50;;;;;;;;;;5090444;28;20265;-79
2021/05/14 02:45:31;;;;;;;28.27;22.57;;;;;;;;;;5090077;28;20187;-79
2021/05/14 02:47:56;;;;;;;25.17;21.40;;;;;;;;;;5074401;28;20198;-79
2021/05/14 02:50:22;;;;;;;26.77;23.07;;;;;;;;;;5074946;28;20163;-79
2021/05/14 02:52:47;;;;;;;25.93;22.60;;;;;;;;;;5074395;28;20163;-79
2021/05/14 02:55:13;;;;;;;25.53;22.47;;;;;;;;;;5073531;28;20163;-79
2021/05/14 02:57:38;;;;;;;25.70;22.73;;;;;;;;;;5074211;28;20173;-79
2021/05/14 03:00:05;;;;;;;27.17;22.07;;;;;;;;;;5073927;28;20203;-79
2021/05/14 03:02:30;;;;;;;24.70;21.87;;;;;;;;;;5074164;28;20167;-79
2021/05/14 03:04:55;;;;;;;25.33;21.63;;;;;;;;;;5074432;28;20163;-79
2021/05/14 03:07:21;;;;;;;24.40;21.77;;;;;;;;;;5073950;28;20170;-79
2021/05/14 03:09:46;;;;;;;24.50;21.50;;;;;;;;;;5074120;28;20167;-79
2021/05/14 03:12:12;;;;;;;28.73;23.17;;;;;;;;;;5074262;28;20198;-79
2021/05/14 03:14:37;;;;;;;28.80;21.60;;;;;;;;;;5073866;28;20189;-79
2021/05/14 03:17:03;;;;;;;27.03;22.43;;;;;;;;;;5073982;28;20233;-79
2021/05/14 03:19:28;;;;;;;27.03;22.60;;;;;;;;;;5073543;28;20252;-79
2021/05/14 03:21:54;;;;;;;29.70;22.73;;;;;;;;;;5089953;28;20171;-80
2021/05/14 03:24:19;;;;;;;28.33;23.07;;;;;;;;;;5074229;28;20237;-79
2021/05/14 03:26:47;;;;;;;32.17;24.47;;;;;;;;;;5073935;28;20175;-79
2021/05/14 03:29:13;;;;;;;28.93;24.07;;;;;;;;;;5073662;28;20568;-79
2021/05/14 03:31:38;;;;;;;30.70;24.77;;;;;;;;;;5073966;28;20167;-79
2021/05/14 03:34:03;;;;;;;27.53;22.73;;;;;;;;;;5074083;28;20286;-79
2021/05/14 03:36:28;;;;;;;28.67;22.20;;;;;;;;;;5056379;28;20182;-79
2021/05/14 03:38:55;;;;;;;25.87;22.70;;;;;;;;;;5073513;28;20229;-79
2021/05/14 03:43:55;;;;;;;25.07;22.23;;;;;;;;;;5073849;28;20163;-79
2021/05/14 03:46:21;;;;;;;27.40;22.90;;;;;;;;;;5073726;28;20212;-79
2021/05/14 03:48:46;;;;;;;33.60;22.90;;;;;;;;;;5073582;28;20176;-79
2021/05/14 03:51:11;;;;;;;28.27;23.10;;;;;;;;;;5074052;28;20167;-79
2021/05/14 03:53:37;;;;;;;22.77;19.50;;;;;;;;;;5073711;28;20167;-79
2021/05/14 03:56:02;;;;;;;20.97;18.80;;;;;;;;;;5089165;28;20697;-79
2021/05/14 03:58:27;;;;;;;22.67;18.60;;;;;;;;;;5073841;28;20225;-79
2021/05/14 04:00:53;;;;;;;20.93;18.73;;;;;;;;;;5073584;28;20530;-79
2021/05/14 04:03:20;;;;;;;21.63;18.40;;;;;;;;;;5089154;28;20248;-79
2021/05/14 04:05:46;;;;;;;20.53;17.87;;;;;;;;;;5073915;28;20178;-79
2021/05/14 04:08:11;;;;;;;20.07;17.10;;;;;;;;;;5076843;28;20170;-79
2021/05/14 04:16:01;;;;;;;18.07;16.10;;;;;;;;;;5077482;28;20186;-79
2021/05/14 04:18:26;;;;;;;19.63;17.60;;;;;;;;;;5077481;28;20227;-79
2021/05/14 04:20:52;;;;;;;20.03;18.00;;;;;;;;;;5077562;28;20169;-79
2021/05/14 04:23:17;;;;;;;19.37;17.23;;;;;;;;;;5076974;28;20525;-79
2021/05/14 04:25:43;;;;;;;17.60;15.70;;;;;;;;;;5077309;28;20255;-79
2021/05/14 04:28:08;;;;;;;18.67;16.87;;;;;;;;;;5076954;28;20186;-80
2021/05/14 04:30:33;;;;;;;18.13;16.20;;;;;;;;;;5077669;28;20176;-79
2021/05/14 04:32:59;;;;;;;18.13;16.33;;;;;;;;;;5076981;28;20195;-79
2021/05/14 04:35:26;;;;;;;17.90;16.10;;;;;;;;;;5077303;28;20175;-79
2021/05/14 04:37:51;;;;;;;21.77;18.03;;;;;;;;;;5077142;28;20254;-79
2021/05/14 04:40:16;;;;;;;21.53;18.47;;;;;;;;;;5076905;28;20301;-79
2021/05/14 04:42:41;;;;;;;21.60;19.30;;;;;;;;;;5077510;28;20168;-79
2021/05/14 04:45:07;;;;;;;21.20;19.03;;;;;;;;;;5077185;28;20254;-79
2021/05/14 04:47:34;;;;;;;23.20;20.83;;;;;;;;;;5076721;28;20190;-79
2021/05/14 04:50:00;;;;;;;19.53;17.43;;;;;;;;;;5076764;28;20241;-79
2021/05/14 04:52:26;;;;;;;20.93;18.87;;;;;;;;;;5076390;28;20621;-79
2021/05/14 04:54:51;;;;;;;19.17;17.38;;;;;;;;;;5076894;28;20189;-80
2021/05/14 04:57:16;;;;;;;17.95;16.13;;;;;;;;;;5076671;28;20166;-80
2021/05/14 04:59:42;;;;;;;18.20;16.40;;;;;;;;;;5076598;28;20526;-80
2021/05/14 05:02:07;;;;;;;19.48;17.60;;;;;;;;;;5076938;28;20172;-80
2021/05/14 05:04:36;;;;;;;20.30;18.30;;;;;;;;;;5076249;28;20175;-80
2021/05/14 05:07:02;;;;;;;21.13;19.20;;;;;;;;;;5076696;28;20160;-80
2021/05/14 05:09:27;;;;;;;20.48;18.40;;;;;;;;;;5076689;28;20179;-80
2021/05/14 05:11:53;;;;;;;21.20;19.00;;;;;;;;;;5076072;28;20168;-80
2021/05/14 05:14:18;;;;;;;20.95;18.80;;;;;;;;;;5076624;28;20179;-80
2021/05/14 05:16:43;;;;;;;17.38;15.75;;;;;;;;;;5076657;28;20222;-81
2021/05/14 05:19:09;;;;;;;18.15;16.52;;;;;;;;;;5075615;28;20548;-81
2021/05/14 05:21:34;;;;;;;18.52;16.83;;;;;;;;;;5076105;28;20622;-81
2021/05/14 05:23:59;;;;;;;15.85;14.48;;;;;;;;;;5075664;28;20167;-81
2021/05/14 05:26:26;;;;;;;15.77;14.45;;;;;;;;;;5076706;28;20257;-78
2021/05/14 05:28:51;;;;;;;15.75;14.55;;;;;;;;;;5075804;28;20163;-79
2021/05/14 05:31:17;;;;;;;16.05;14.85;;;;;;;;;;5076823;28;20512;-78
2021/05/14 05:33:42;;;;;;;15.77;14.48;;;;;;;;;;5075950;28;20190;-79
2021/05/14 05:36:07;;;;;;;16.55;15.25;;;;;;;;;;5075961;28;20263;-78
2021/05/14 05:38:33;;;;;;;15.25;13.95;;;;;;;;;;5075951;28;20213;-79
2021/05/14 05:40:58;;;;;;;15.50;14.15;;;;;;;;;;5075878;28;20258;-78
2021/05/14 05:43:24;;;;;;;15.23;14.02;;;;;;;;;;5075477;28;20163;-78
2021/05/14 05:45:49;;;;;;;15.35;14.05;;;;;;;;;;5075665;28;20175;-78
2021/05/14 05:48:14;;;;;;;15.38;14.18;;;;;;;;;;5075946;28;20175;-78
2021/05/14 05:50:41;;;;;;;16.58;15.25;;;;;;;;;;5075937;28;20167;-78
2021/05/14 05:53:08;;;;;;;17.58;15.85;;;;;;;;;;5075889;28;20159;-78
2021/05/14 05:55:33;;;;;;;18.20;16.52;;;;;;;;;;5075660;28;20171;-78
2021/05/14 05:58:07;;;;;;;17.88;16.25;;;;;;;;;;5075475;28;20167;-79
2021/05/14 06:00:33;;;;;;;23.27;18.15;;;;;;;;;;5075220;28;20625;-80
2021/05/14 06:02:58;;;;;;;29.85;19.45;;;;;;;;;;5075697;28;20175;-79
2021/05/14 06:05:23;;;;;;;28.30;18.45;;;;;;;;;;5075042;28;20160;-80
2021/05/14 06:07:49;;;;;;;26.40;18.85;;;;;;;;;;5075586;28;20228;-80
2021/05/14 06:10:14;;;;;;;21.02;18.98;;;;;;;;;;5074946;28;20163;-80
2021/05/14 06:12:39;;;;;;;20.30;18.40;;;;;;;;;;5075525;28;20189;-78
2021/05/14 06:15:05;;;;;;;19.13;17.73;;;;;;;;;;5075332;28;20228;-79
2021/05/14 06:17:30;;;;;;;25.33;17.65;;;;;;;;;;5075637;28;20234;-79
2021/05/14 06:19:58;;;;;;;19.42;17.73;;;;;;;;;;5074909;28;20649;-79
2021/05/14 06:22:23;;;;;;;17.58;16.05;;;;;;;;;;5074591;28;20175;-78
2021/05/14 06:24:48;;;;;;;17.48;16.10;;;;;;;;;;5074878;28;20182;-78
2021/05/14 06:27:14;;;;;;;17.20;15.75;;;;;;;;;;5074906;28;20216;-78
2021/05/14 06:29:41;;;;;;;18.15;16.65;;;;;;;;;;5073490;28;20653;-79
2021/05/14 06:32:07;;;;;;;17.42;15.80;;;;;;;;;;5074537;28;20163;-79
2021/05/14 06:34:32;;;;;;;17.88;16.48;;;;;;;;;;5075190;28;20211;-79
2021/05/14 06:36:57;;;;;;;17.63;16.25;;;;;;;;;;5090304;28;20265;-79
2021/05/14 06:39:23;;;;;;;16.90;15.60;;;;;;;;;;5074826;28;20198;-79
2021/05/14 06:41:48;;;;;;;15.43;14.43;;;;;;;;;;5074246;28;20174;-79
2021/05/14 06:44:13;;;;;;;15.13;13.90;;;;;;;;;;5074788;28;20237;-79
2021/05/14 06:46:43;;;;;;;16.50;15.18;;;;;;;;;;5074516;28;20652;-79
2021/05/14 06:49:09;;;;;;;17.20;15.90;;;;;;;;;;5074743;28;20198;-79
2021/05/14 06:51:34;;;;;;;16.70;15.38;;;;;;;;;;5074694;28;20179;-80
2021/05/14 06:54:00;;;;;;;15.80;14.70;;;;;;;;;;5074389;28;20166;-79
2021/05/14 06:56:25;;;;;;;16.30;14.98;;;;;;;;;;5074063;28;20173;-79
2021/05/14 06:58:53;;;;;;;15.75;14.63;;;;;;;;;;5073980;28;20641;-80
2021/05/14 07:01:19;;;;;;;15.50;14.40;;;;;;;;;;5073113;28;20173;-80
2021/05/14 07:03:44;;;;;;;14.93;13.75;;;;;;;;;;5073353;28;20253;-80
2021/05/14 07:06:11;;;;;;;14.02;13.02;;;;;;;;;;5074111;28;20175;-79
2021/05/14 07:08:36;;;;;;;15.15;13.95;;;;;;;;;;5073883;28;20197;-79
2021/05/14 07:11:02;;;;;;;14.50;13.50;;;;;;;;;;5090687;28;20178;-79
2021/05/14 07:13:27;;;;;;;13.95;12.85;;;;;;;;;;5073920;28;20165;-79
2021/05/14 07:15:53;;;;;;;13.15;12.15;;;;;;;;;;5074304;28;20174;-79
2021/05/14 07:18:19;;;;;;;13.88;12.68;;;;;;;;;;5072747;28;20364;-79
2021/05/14 07:20:44;;;;;;;13.30;12.20;;;;;;;;;;5073848;28;20593;-79
2021/05/14 07:23:09;;;;;;;13.95;12.85;;;;;;;;;;5074259;28;20669;-79
2021/05/14 07:25:35;;;;;;;13.73;12.60;;;;;;;;;;5073130;28;20170;-78
2021/05/14 07:28:00;;;;;;;19.30;13.10;;;;;;;;;;5074006;28;20246;-79
2021/05/14 07:30:25;;;;;;;13.45;12.18;;;;;;;;;;5074141;28;20630;-79
2021/05/14 07:32:51;;;;;;;14.60;13.20;;;;;;;;;;5074118;28;20191;-79
2021/05/14 07:35:16;;;;;;;13.80;12.50;;;;;;;;;;5074108;28;20621;-81
2021/05/14 07:37:42;;;;;;;12.52;11.43;;;;;;;;;;5073535;28;20171;-78
2021/05/14 07:40:07;;;;;;;12.98;11.88;;;;;;;;;;5074226;28;20209;-79
2021/05/14 07:42:33;;;;;;;13.30;12.07;;;;;;;;;;5072957;28;20671;-79
2021/05/14 07:44:58;;;;;;;13.00;11.70;;;;;;;;;;5072738;28;20345;-80
2021/05/14 07:47:24;;;;;;;13.75;11.75;;;;;;;;;;5072089;28;20171;-82
2021/05/14 07:49:49;;;;;;;11.07;10.20;;;;;;;;;;5072376;28;20198;-81
2021/05/14 07:52:14;;;;;;;13.45;12.18;;;;;;;;;;5072591;28;20187;-81
2021/05/14 07:54:41;;;;;;;13.20;12.10;;;;;;;;;;5073218;28;20254;-81
2021/05/14 07:57:07;;;;;;;13.10;11.98;;;;;;;;;;5055385;28;20560;-78
2021/05/14 07:59:32;;;;;;;13.40;12.18;;;;;;;;;;5073011;28;20244;-79
2021/05/14 08:01:58;;;;;;;14.68;13.27;;;;;;;;;;5072840;28;20614;-78
2021/05/14 08:04:23;;;;;;;13.70;12.40;;;;;;;;;;5073154;28;20630;-78
2021/05/14 08:06:51;;;;;;;14.77;13.48;;;;;;;;;;5072753;28;20175;-81
2021/05/14 08:09:20;;;;;;;14.98;13.52;;;;;;;;;;5072451;28;20192;-80
2021/05/14 08:11:46;;;;;;;14.50;12.57;;;;;;;;;;5054969;28;20599;-80
2021/05/14 08:14:12;;;;;;;15.55;14.15;;;;;;;;;;5072559;28;20254;-81
2021/05/14 08:16:37;;;;;;;15.70;14.27;;;;;;;;;;5072762;28;20167;-80
2021/05/14 08:19:02;;;;;;;15.65;14.15;;;;;;;;;;5072480;28;20289;-80
2021/05/14 08:21:28;;;;;;;17.15;15.48;;;;;;;;;;5072382;28;20171;-81
2021/05/14 08:23:53;;;;;;;17.23;15.70;;;;;;;;;;5054900;28;20174;-78
2021/05/14 08:26:18;;;;;;;17.65;15.85;;;;;;;;;;5054688;28;20179;-81
2021/05/14 08:28:44;;;;;;;18.50;16.13;;;;;;;;;;5072693;28;20585;-81
2021/05/14 08:31:09;;;;;;;19.10;17.15;;;;;;;;;;5072341;28;20202;-80
2021/05/14 08:33:35;;;;;;;18.23;16.52;;;;;;;;;;5073115;28;20191;-79
2021/05/14 08:36:00;;;;;;;17.77;16.10;;;;;;;;;;5073409;28;20602;-80
2021/05/14 08:38:26;;;;;;;18.98;17.08;;;;;;;;;;5072751;28;20684;-78
2021/05/14 08:40:52;;;;;;;19.20;17.40;;;;;;;;;;5055183;28;20190;-78
2021/05/14 08:43:17;;;;;;;18.90;17.20;;;;;;;;;;5073408;28;20163;-78
2021/05/14 08:45:42;;;;;;;20.92;18.77;;;;;;;;;;5072885;28;20630;-78
2021/05/14 08:48:12;;;;;;;17.67;16.08;;;;;;;;;;5073090;28;20182;-79
2021/05/14 08:50:38;;;;;;;19.58;17.88;;;;;;;;;;5073209;28;20254;-78
2021/05/14 08:53:04;;;;;;;19.40;17.48;;;;;;;;;;5073658;28;20189;-79
2021/05/14 08:55:29;;;;;;;21.55;19.60;;;;;;;;;;5076163;28;20625;-78
2021/05/14 08:57:55;;;;;;;21.38;19.15;;;;;;;;;;5076933;28;20171;-78
2021/05/14 09:00:20;;;;;;;21.63;19.63;;;;;;;;;;5076262;28;20207;-79
2021/05/14 09:02:46;;;;;;;20.55;18.83;;;;;;;;;;5077149;28;20171;-78
2021/05/14 09:05:21;;;;;;;19.38;17.42;;;;;;;;;;5076499;28;20304;-78
2021/05/14 09:07:46;;;;;;;20.40;18.48;;;;;;;;;;5058516;28;20175;-78
2021/05/14 09:10:12;;;;;;;18.85;17.25;;;;;;;;;;5076651;28;20182;-79
2021/05/14 09:12:38;;;;;;;19.65;17.90;;;;;;;;;;5076074;28;20262;-78
2021/05/14 09:15:18;;;;;;;19.90;18.10;;;;;;;;;;5058140;28;20644;-78
2021/05/14 09:18:00;;;;;;;21.98;20.05;;;;;;;;;;5074544;28;20226;-78
2021/05/14 09:20:30;;;;;;;22.23;20.23;;;;;;;;;;5057311;28;20167;-80
2021/05/14 09:22:55;;;;;;;23.95;21.75;;;;;;;;;;5073445;28;20183;-78
2021/05/14 09:25:20;;;;;;;23.55;21.27;;;;;;;;;;5076143;28;20174;-78
2021/05/14 09:27:45;;;;;;;21.05;19.02;;;;;;;;;;5075954;28;20178;-78
2021/05/14 09:30:11;;;;;;;20.98;19.08;;;;;;;;;;5075964;28;20201;-78
2021/05/14 09:32:38;;;;;;;21.40;19.35;;;;;;;;;;5074902;28;20665;-78
2021/05/14 09:35:05;;;;;;;22.88;20.90;;;;;;;;;;5086768;28;20198;-78
2021/05/14 09:37:30;;;;;;;22.85;20.73;;;;;;;;;;5067162;28;20206;-78
2021/05/14 09:40:16;;;;;;;18.52;16.80;;;;;;;;;;5084365;28;20234;-78
2021/05/14 09:42:41;;;;;;;17.65;15.85;;;;;;;;;;5085775;28;20163;-78
2021/05/14 09:45:13;;;;;;;17.50;15.20;;;;;;;;;;5084767;28;20171;-78
2021/05/14 09:47:39;;;;;;;19.45;17.45;;;;;;;;;;5066002;28;20202;-79
2021/05/14 09:50:25;;;;;;;19.67;17.90;;;;;;;;;;5086133;28;20209;-79
2021/05/14 09:53:20;;;;;;;14.15;13.00;;;;;;;;;;5083319;28;20254;-78
2021/05/14 09:55:51;;;;;;;10.93;9.93;;;;;;;;;;5046269;28;20191;-79
2021/05/14 09:58:22;;;;;;;10.48;9.48;;;;;;;;;;5055795;28;20182;-79
2021/05/14 10:00:48;;;;;;;13.35;12.10;;;;;;;;;;5071466;28;20179;-79
2021/05/14 10:03:17;;;;;;;14.52;9.13;;;;;;;;;;5055148;28;20504;-79
2021/05/14 10:05:44;;;;;;;17.13;13.40;;;;;;;;;;5066344;28;20528;-79
2021/05/14 10:08:11;;;;;;;13.60;12.40;;;;;;;;;;5053721;28;20218;-79
2021/05/14 10:10:36;;;;;;;13.60;12.32;;;;;;;;;;5087277;28;20246;-82
2021/05/14 10:13:03;;;;;;;13.57;12.18;;;;;;;;;;5053017;28;20183;-79
2021/05/14 10:15:29;;;;;;;12.80;11.60;;;;;;;;;;5071785;28;20577;-80
2021/05/14 10:17:55;;;;;;;11.75;10.75;;;;;;;;;;5070739;28;20238;-79
2021/05/14 10:20:23;;;;;;;12.18;11.02;;;;;;;;;;5085578;28;20210;-79
2021/05/14 10:22:50;;;;;;;11.80;10.70;;;;;;;;;;5071418;28;21919;-79
2021/05/14 10:25:34;;;;;;;10.45;9.50;;;;;;;;;;5073443;28;20178;-79
2021/05/14 10:28:20;;;;;;;10.10;8.82;;;;;;;;;;5054533;28;20185;-79
2021/05/14 10:31:00;;;;;;;8.50;7.65;;;;;;;;;;5053219;28;20273;-79
2021/05/14 10:33:44;;;;;;;8.95;7.80;;;;;;;;;;5070653;28;20191;-81
2021/05/14 10:36:32;;;;;;;8.13;7.43;;;;;;;;;;5082061;28;20182;-80
2021/05/14 10:39:04;;;;;;;7.68;6.70;;;;;;;;;;5068418;28;20195;-80
2021/05/14 10:41:30;;;;;;;7.95;7.32;;;;;;;;;;5068462;28;20541;-79
2021/05/14 10:43:58;;;;;;;8.35;7.65;;;;;;;;;;5071241;28;20167;-80
2021/05/14 10:46:28;;;;;;;9.25;7.32;;;;;;;;;;5053856;28;20576;-79
2021/05/14 10:48:59;;;;;;;9.80;8.90;;;;;;;;;;5073922;28;20181;-80
2021/05/14 10:51:40;;;;;;;11.18;9.20;;;;;;;;;;5073624;28;20213;-80
2021/05/14 10:54:06;;;;;;;8.65;7.75;;;;;;;;;;5055332;28;20183;-79
2021/05/14 10:56:31;;;;;;;9.75;8.50;;;;;;;;;;5074258;28;20179;-80
2021/05/14 10:59:03;;;;;;;11.55;10.13;;;;;;;;;;5074118;28;20536;-79
2021/05/14 11:01:31;;;;;;;10.18;9.27;;;;;;;;;;5073998;28;20503;-80
2021/05/14 11:03:57;;;;;;;8.15;6.20;;;;;;;;;;5074881;28;20254;-79
2021/05/14 11:06:23;;;;;;;5.32;4.82;;;;;;;;;;5074347;28;20203;-80
2021/05/14 11:09:03;;;;;;;5.57;4.90;;;;;;;;;;5074493;28;20244;-80
2021/05/14 11:11:28;;;;;;;5.65;5.15;;;;;;;;;;5074237;28;20171;-79
2021/05/14 11:13:55;;;;;;;6.70;5.75;;;;;;;;;;5074164;28;20633;-79
2021/05/14 11:16:34;;;;;;;6.22;5.65;;;;;;;;;;5072390;28;20201;-80
2021/05/14 11:19:09;;;;;;;7.13;6.40;;;;;;;;;;5055222;28;20692;-81
2021/05/14 11:21:53;;;;;;;8.50;7.07;;;;;;;;;;5073648;28;20162;-79
2021/05/14 11:24:26;;;;;;;7.65;6.95;;;;;;;;;;5056748;28;20513;-80
2021/05/14 11:26:58;;;;;;;6.40;5.80;;;;;;;;;;5073790;28;20622;-79
2021/05/14 11:29:31;;;;;;;7.25;6.50;;;;;;;;;;5074107;28;20171;-79
2021/05/14 11:32:08;;;;;;;9.63;8.65;;;;;;;;;;5073605;28;20590;-80
2021/05/14 11:34:48;;;;;;;10.48;9.57;;;;;;;;;;5074199;28;20159;-79
2021/05/14 11:37:17;;;;;;;14.23;10.15;;;;;;;;;;5055272;28;20171;-80
2021/05/14 11:39:42;;;;;;;10.30;9.30;;;;;;;;;;5055854;28;20657;-80
2021/05/14 11:42:14;;;;;;;11.65;10.43;;;;;;;;;;5073252;28;20171;-80
2021/05/14 11:44:52;;;;;;;10.65;9.63;;;;;;;;;;5073719;28;20670;-80
2021/05/14 11:47:17;;;;;;;9.02;8.15;;;;;;;;;;5073041;28;20155;-80
2021/05/14 11:49:42;;;;;;;9.88;8.88;;;;;;;;;;5055222;28;20175;-80
2021/05/14 11:52:08;;;;;;;8.45;7.65;;;;;;;;;;5057621;28;20616;-80
2021/05/14 11:54:34;;;;;;;9.05;8.27;;;;;;;;;;5082630;28;20166;-80
2021/05/14 11:57:00;;;;;;;9.85;8.23;;;;;;;;;;5077833;28;20187;-79
2021/05/14 11:59:25;;;;;;;7.35;6.65;;;;;;;;;;5063341;28;20602;-80
2021/05/14 12:01:51;;;;;;;15.15;6.95;;;;;;;;;;5056831;28;20171;-82
2021/05/14 12:04:16;;;;;;;8.95;7.90;;;;;;;;;;5054015;28;20629;-79
2021/05/14 12:06:51;;;;;;;10.82;8.93;;;;;;;;;;5055441;28;20257;-79
2021/05/14 12:09:17;;;;;;;11.00;8.80;;;;;;;;;;5055453;28;20178;-79
2021/05/14 12:11:44;;;;;;;9.70;8.35;;;;;;;;;;5055439;28;20167;-79
2021/05/14 12:14:12;;;;;;;10.43;9.45;;;;;;;;;;5055263;28;20213;-80
2021/05/14 12:16:37;;;;;;;8.32;7.53;;;;;;;;;;5073216;28;20170;-80
2021/05/14 12:19:04;;;;;;;13.23;8.35;;;;;;;;;;5055250;28;20289;-80
2021/05/14 12:21:30;;;;;;;11.30;8.30;;;;;;;;;;5073479;28;20179;-80
2021/05/14 12:23:56;;;;;;;12.50;10.25;;;;;;;;;;5073282;28;20172;-80
2021/05/14 12:26:22;;;;;;;15.73;14.10;;;;;;;;;;5072961;28;20633;-79
2021/05/14 12:28:48;;;;;;;15.60;13.82;;;;;;;;;;5075869;28;20671;-79
2021/05/14 12:31:14;;;;;;;15.80;14.00;;;;;;;;;;5076703;28;20193;-81
2021/05/14 12:33:47;;;;;;;18.63;13.73;;;;;;;;;;5076120;28;20205;-81
2021/05/14 12:36:12;;;;;;;15.73;14.13;;;;;;;;;;5076811;28;20167;-80
2021/05/14 12:38:44;;;;;;;15.17;13.57;;;;;;;;;;5077261;28;20211;-80
2021/05/14 12:41:22;;;;;;;15.57;13.97;;;;;;;;;;5077159;28;20682;-80
2021/05/14 12:43:47;;;;;;;14.67;13.13;;;;;;;;;;5075855;28;20674;-80
2021/05/14 12:46:13;;;;;;;15.13;13.60;;;;;;;;;;5058944;28;20179;-79
2021/05/14 12:48:38;;;;;;;12.70;11.40;;;;;;;;;;5076169;28;20266;-81
2021/05/14 12:51:04;;;;;;;15.73;11.93;;;;;;;;;;5076414;28;20167;-80
2021/05/14 12:53:29;;;;;;;13.90;12.37;;;;;;;;;;5092259;28;20186;-79
2021/05/14 12:55:54;;;;;;;14.43;12.93;;;;;;;;;;5076493;28;20170;-79
2021/05/14 12:58:20;;;;;;;15.97;13.30;;;;;;;;;;5076455;28;20179;-79
2021/05/14 13:00:45;;;;;;;14.07;12.77;;;;;;;;;;5076468;28;20171;-78
2021/05/14 13:03:11;;;;;;;15.47;13.80;;;;;;;;;;5076817;28;20175;-78
2021/05/14 13:05:40;;;;;;;15.90;13.40;;;;;;;;;;5076539;28;20229;-79
2021/05/14 13:08:07;;;;;;;15.60;14.10;;;;;;;;;;5057985;28;20183;-78
2021/05/14 13:10:40;;;;;;;15.03;13.50;;;;;;;;;;5076352;28;20183;-79
2021/05/14 13:13:06;;;;;;;15.77;14.10;;;;;;;;;;5074626;28;20183;-80
2021/05/14 13:15:32;;;;;;;16.77;15.03;;;;;;;;;;5076280;28;20225;-79
2021/05/14 13:17:57;;;;;;;17.53;15.37;;;;;;;;;;5075945;28;20598;-80
2021/05/14 13:20:23;;;;;;;16.50;14.47;;;;;;;;;;5058056;28;20206;-80
2021/05/14 13:22:48;;;;;;;18.93;16.97;;;;;;;;;;5075984;28;20577;-79
2021/05/14 13:25:13;;;;;;;19.10;17.10;;;;;;;;;;5076134;28;20171;-79
2021/05/14 13:27:40;;;;;;;17.80;15.57;;;;;;;;;;5076011;28;20202;-79
2021/05/14 13:30:09;;;;;;;17.37;15.77;;;;;;;;;;5075619;28;20175;-79
2021/05/14 13:32:34;;;;;;;17.97;16.07;;;;;;;;;;5057778;28;20205;-79
2021/05/14 13:35:00;;;;;;;20.03;17.90;;;;;;;;;;5075530;28;20175;-81
2021/05/14 13:37:26;;;;;;;23.03;19.40;;;;;;;;;;5058065;28;20175;-79
2021/05/14 13:39:51;;;;;;;21.90;18.43;;;;;;;;;;5075141;28;20522;-79
2021/05/14 13:42:16;;;;;;;19.90;17.93;;;;;;;;;;5075871;28;20553;-79
2021/05/14 13:44:42;;;;;;;19.70;17.50;;;;;;;;;;5075487;28;20167;-80
2021/05/14 13:47:09;;;;;;;21.33;19.13;;;;;;;;;;5076011;28;20174;-79
2021/05/14 13:49:34;;;;;;;20.20;18.17;;;;;;;;;;5076019;28;20175;-79
2021/05/14 13:51:59;;;;;;;20.07;18.07;;;;;;;;;;5075618;28;20250;-79
2021/05/14 13:54:25;;;;;;;19.50;17.63;;;;;;;;;;5075999;28;20171;-80
2021/05/14 13:56:50;;;;;;;19.77;17.20;;;;;;;;;;5075683;28;20222;-79
2021/05/14 13:59:15;;;;;;;19.57;17.67;;;;;;;;;;5075162;28;20199;-79
2021/05/14 14:01:41;;;;;;;18.80;17.00;;;;;;;;;;5075581;28;20171;-79
2021/05/14 14:04:06;;;;;;;20.90;18.70;;;;;;;;;;5075991;28;20171;-79
2021/05/14 14:06:31;;;;;;;19.17;17.00;;;;;;;;;;5075163;28;20221;-79
2021/05/14 14:08:56;;;;;;;20.07;18.07;;;;;;;;;;5075320;28;20171;-79
2021/05/14 14:11:23;;;;;;;18.27;16.50;;;;;;;;;;5075237;28;20610;-79
2021/05/14 14:13:49;;;;;;;18.57;16.67;;;;;;;;;;5075510;28;20197;-79
2021/05/14 14:16:15;;;;;;;20.45;17.98;;;;;;;;;;5075013;28;20769;-79
2021/05/14 14:18:40;;;;;;;18.27;16.57;;;;;;;;;;5075670;28;20262;-79
2021/05/14 14:21:05;;;;;;;19.13;17.40;;;;;;;;;;5075067;28;20183;-79
2021/05/14 14:23:31;;;;;;;19.30;17.33;;;;;;;;;;5057084;28;20175;-79
2021/05/14 14:25:56;;;;;;;19.07;16.77;;;;;;;;;;5075215;28;20167;-79